Time;durP1;ratioP1;P1;durP2;ratioP2;P2;SDS_P1;SDS_P2;PMS_P1;PMS_P2;Temp;Humidity;BMP_temperature;BMP_pressure;BME280_temperature;BME280_humidity;BME280_pressure;Samples;Min_cycle;Max_cycle;Signal;HPM_P1;HPM_P2
2024/02/17 00:00:01;;;;;;;19.00;13.60;;;;;;;11.48;81.68;101043.17;105433;1259;65857;-59
2024/02/17 00:02:28;;;;;;;16.80;12.40;;;;;;;11.47;81.82;101042.80;104709;1256;72835;-60
2024/02/17 00:04:55;;;;;;;15.10;11.10;;;;;;;11.46;82.09;101040.85;106636;1256;138881;-60
2024/02/17 00:07:22;;;;;;;13.30;11.00;;;;;;;11.44;82.18;101034.84;105028;1259;61265;-60
2024/02/17 00:09:48;;;;;;;13.30;10.60;;;;;;;11.44;82.20;101040.96;104550;1256;138689;-60
2024/02/17 00:12:15;;;;;;;14.30;10.40;;;;;;;11.41;82.42;101038.77;104555;1256;65404;-68
2024/02/17 00:14:42;;;;;;;15.20;12.10;;;;;;;11.39;82.60;101038.03;104666;1257;72153;-68
2024/02/17 00:17:09;;;;;;;25.90;19.20;;;;;;;11.39;82.77;101035.22;104663;1254;138836;-67
2024/02/17 00:19:37;;;;;;;26.00;19.00;;;;;;;11.38;82.91;101032.20;104737;1257;61256;-68
2024/02/17 00:22:04;;;;;;;18.10;14.20;;;;;;;11.36;83.06;101034.61;104980;1257;139201;-68
2024/02/17 00:24:30;;;;;;;19.90;14.30;;;;;;;11.35;83.16;101036.15;104923;1259;65993;-68
2024/02/17 00:26:57;;;;;;;17.60;14.60;;;;;;;11.33;83.38;101038.73;105596;1257;71975;-59
2024/02/17 00:29:24;;;;;;;13.00;11.00;;;;;;;11.33;83.51;101042.10;104910;1256;61325;-59
2024/02/17 00:31:51;;;;;;;12.40;9.70;;;;;;;11.33;83.66;101042.61;104741;1256;61240;-68
2024/02/17 00:34:18;;;;;;;11.90;8.90;;;;;;;11.33;83.80;101044.18;104905;1259;138709;-61
2024/02/17 00:36:45;;;;;;;13.10;8.90;;;;;;;11.32;83.98;101045.38;104740;1254;67691;-68
2024/02/17 00:39:12;;;;;;;10.60;8.90;;;;;;;11.31;84.02;101049.22;104715;1259;139040;-68
2024/02/17 00:41:39;;;;;;;11.90;9.40;;;;;;;11.32;84.20;101052.58;104545;1259;61484;-59
2024/02/17 00:44:06;;;;;;;11.10;9.30;;;;;;;11.31;84.32;101057.48;104641;1258;61169;-59
2024/02/17 00:46:32;;;;;;;12.10;10.20;;;;;;;11.32;84.43;101053.48;104777;1257;138651;-67
2024/02/17 00:48:59;;;;;;;11.30;9.70;;;;;;;11.32;84.58;101055.22;105074;1257;66216;-67
2024/02/17 00:51:27;;;;;;;13.60;10.10;;;;;;;11.32;84.65;101057.54;104944;1259;138987;-67
2024/02/17 00:53:53;;;;;;;10.20;8.40;;;;;;;11.32;84.72;101058.73;105482;1257;61217;-67
2024/02/17 00:56:21;;;;;;;17.10;14.50;;;;;;;11.31;84.84;101060.83;104770;1254;61190;-68
2024/02/17 00:58:48;;;;;;;16.60;12.00;;;;;;;11.29;84.90;101061.84;104569;1257;139379;-68
2024/02/17 01:01:17;;;;;;;15.50;11.30;;;;;;;11.30;84.99;101062.21;104706;1259;66489;-68
2024/02/17 01:03:44;;;;;;;14.80;10.00;;;;;;;11.30;85.07;101064.67;106812;1256;139523;-68
2024/02/17 01:06:11;;;;;;;13.90;9.50;;;;;;;11.32;85.21;101067.33;105252;1257;61375;-67
2024/02/17 01:08:38;;;;;;;22.60;12.80;;;;;;;11.31;85.29;101069.80;105202;1257;61458;-63
2024/02/17 01:11:05;;;;;;;19.00;11.20;;;;;;;11.32;85.38;101075.08;104609;1258;138914;-60
2024/02/17 01:13:31;;;;;;;20.30;11.30;;;;;;;11.32;85.53;101074.39;104606;1256;65266;-59
2024/02/17 01:15:58;;;;;;;7.50;6.10;;;;;;;11.33;85.54;101075.99;104600;1257;139040;-60
2024/02/17 01:18:25;;;;;;;7.60;5.10;;;;;;;11.34;85.59;101077.23;105338;1256;61350;-61
2024/02/17 01:20:52;;;;;;;6.60;4.40;;;;;;;11.34;85.62;101083.06;104867;1255;61353;-58
2024/02/17 01:23:19;;;;;;;5.10;4.10;;;;;;;11.35;85.64;101085.02;108418;1255;138633;-59
2024/02/17 01:25:47;;;;;;;6.00;4.10;;;;;;;11.36;85.63;101089.42;105772;1258;64678;-59
2024/02/17 01:28:14;;;;;;;5.20;3.90;;;;;;;11.36;85.58;101086.45;104492;1259;138969;-59
2024/02/17 01:30:41;;;;;;;5.30;4.50;;;;;;;11.37;85.52;101087.88;104887;1259;61349;-59
2024/02/17 01:33:08;;;;;;;5.40;4.40;;;;;;;11.38;85.52;101088.44;107021;1258;138959;-60
2024/02/17 01:35:35;;;;;;;6.90;5.70;;;;;;;11.40;85.52;101090.23;105149;1258;72912;-60
2024/02/17 01:38:02;;;;;;;6.30;4.40;;;;;;;11.40;85.45;101090.41;106275;1259;65821;-60
2024/02/17 01:40:29;;;;;;;4.60;3.80;;;;;;;11.40;85.40;101095.52;104303;1260;138291;-59
2024/02/17 01:42:56;;;;;;;5.50;3.80;;;;;;;11.39;85.36;101093.02;104709;1256;61289;-67
2024/02/17 01:45:23;;;;;;;5.50;3.90;;;;;;;11.38;85.34;101092.48;104409;1256;138877;-67
2024/02/17 01:47:49;;;;;;;5.40;4.10;;;;;;;11.36;85.27;101087.85;104606;1257;75368;-67
2024/02/17 01:50:16;;;;;;;4.80;3.80;;;;;;;11.36;85.26;101093.81;104957;1259;66936;-67
2024/02/17 01:52:43;;;;;;;5.60;3.40;;;;;;;11.35;85.17;101094.49;104756;1257;139061;-68
2024/02/17 01:55:10;;;;;;;4.50;3.50;;;;;;;11.34;85.18;101096.91;104621;1259;61152;-67
2024/02/17 01:57:37;;;;;;;4.10;3.50;;;;;;;11.33;85.23;101096.20;104753;1258;138552;-67
2024/02/17 02:00:07;;;;;;;6.10;3.90;;;;;;;11.33;85.21;101091.29;106986;1255;74868;-59
2024/02/17 02:02:34;;;;;;;4.60;3.60;;;;;;;11.34;85.24;101093.58;104848;1259;65085;-67
2024/02/17 02:05:01;;;;;;;4.90;3.70;;;;;;;11.34;85.19;101089.39;105060;1258;138712;-59
2024/02/17 02:07:28;;;;;;;5.40;3.50;;;;;;;11.33;85.24;101097.61;104825;1256;61132;-68
2024/02/17 02:09:54;;;;;;;3.90;3.10;;;;;;;11.36;85.20;101100.84;104669;1258;139954;-68
2024/02/17 02:12:22;;;;;;;3.50;2.90;;;;;;;11.35;85.14;101094.33;104716;1255;75595;-67
2024/02/17 02:15:05;;;;;;;2.60;2.20;;;;;;;11.33;85.07;101090.92;104647;1259;67055;-67
2024/02/17 02:17:32;;;;;;;4.00;2.70;;;;;;;11.31;84.90;101088.07;107072;1258;71559;-67
2024/02/17 02:20:02;;;;;;;2.50;2.10;;;;;;;11.29;84.83;101095.20;105078;1254;61353;-67
2024/02/17 02:22:29;;;;;;;2.10;1.80;;;;;;;11.25;84.62;101103.88;104449;1258;139069;-67
2024/02/17 02:24:57;;;;;;;2.80;2.10;;;;;;;11.20;84.52;101110.77;104538;1257;73703;-67
2024/02/17 02:27:27;;;;;;;3.90;1.60;;;;;;;11.15;84.45;101116.09;104572;1256;139722;-68
2024/02/17 02:29:58;;;;;;;2.40;1.80;;;;;;;11.13;84.48;101131.11;104709;1257;72271;-68
2024/02/17 02:32:26;;;;;;;1.80;1.70;;;;;;;11.10;84.34;101139.11;105055;1259;61378;-68
2024/02/17 02:34:53;;;;;;;2.70;2.00;;;;;;;11.06;84.24;101141.80;109068;1254;138546;-67
2024/02/17 02:37:20;;;;;;;2.10;1.80;;;;;;;11.01;84.13;101142.19;106887;1257;75046;-68
2024/02/17 02:39:47;;;;;;;2.40;1.80;;;;;;;10.95;84.00;101140.08;104521;1257;138817;-69
2024/02/17 02:42:14;;;;;;;2.50;2.00;;;;;;;10.91;84.06;101155.05;104651;1257;72150;-60
2024/02/17 02:44:40;;;;;;;2.00;1.80;;;;;;;10.87;84.05;101157.40;104580;1259;61211;-60
2024/02/17 02:47:07;;;;;;;2.50;1.80;;;;;;;10.85;84.01;101151.03;104581;1260;138535;-60
2024/02/17 02:49:34;;;;;;;2.90;1.80;;;;;;;10.83;84.00;101163.63;105062;1257;75337;-60
2024/02/17 02:52:01;;;;;;;2.50;1.80;;;;;;;10.83;84.13;101165.20;105069;1254;138400;-59
2024/02/17 02:54:27;;;;;;;1.60;1.50;;;;;;;10.82;84.09;101169.38;104798;1259;72784;-59
2024/02/17 02:56:54;;;;;;;1.90;1.60;;;;;;;10.81;84.03;101173.55;104775;1259;61387;-67
2024/02/17 02:59:21;;;;;;;1.90;1.50;;;;;;;10.79;83.84;101173.83;104639;1259;139111;-68
2024/02/17 03:01:49;;;;;;;1.90;1.70;;;;;;;10.75;83.50;101170.90;108389;1254;75179;-68
2024/02/17 03:04:16;;;;;;;2.00;1.80;;;;;;;10.67;83.16;101169.95;106450;1254;138541;-68
2024/02/17 03:06:43;;;;;;;2.10;1.80;;;;;;;10.60;83.04;101179.73;105117;1257;71799;-68
2024/02/17 03:09:09;;;;;;;2.00;1.80;;;;;;;10.52;82.72;101183.86;104768;1259;138497;-67
2024/02/17 03:11:38;;;;;;;3.20;2.30;;;;;;;10.40;82.40;101190.15;104684;1259;61378;-68
2024/02/17 03:14:05;;;;;;;2.40;2.20;;;;;;;10.27;82.21;101188.29;108200;1256;74382;-68
2024/02/17 03:16:31;;;;;;;2.80;2.40;;;;;;;10.14;82.09;101189.27;104493;1258;138824;-59
2024/02/17 03:18:58;;;;;;;3.50;3.00;;;;;;;10.02;82.03;101181.83;104863;1259;74316;-59
2024/02/17 03:21:25;;;;;;;3.40;2.70;;;;;;;9.91;82.09;101183.56;104963;1259;138821;-66
2024/02/17 03:23:52;;;;;;;4.00;3.00;;;;;;;9.85;82.22;101186.67;108947;1256;59153;-68
2024/02/17 03:26:19;;;;;;;4.00;3.20;;;;;;;9.80;82.37;101190.88;108442;1254;72519;-67
2024/02/17 03:28:45;;;;;;;4.80;3.50;;;;;;;9.75;82.38;101188.63;105527;1259;138784;-67
2024/02/17 03:31:12;;;;;;;4.20;3.80;;;;;;;9.72;82.44;101188.53;104655;1259;73849;-67
2024/02/17 03:33:39;;;;;;;4.90;3.30;;;;;;;9.71;82.59;101196.54;104808;1257;138554;-59
2024/02/17 03:36:06;;;;;;;5.40;4.00;;;;;;;9.67;82.60;101193.08;105096;1259;61350;-60
2024/02/17 03:38:33;;;;;;;5.20;4.20;;;;;;;9.66;82.72;101192.85;105044;1258;72829;-59
2024/02/17 03:41:00;;;;;;;4.70;3.80;;;;;;;9.65;82.89;101204.56;104524;1259;138459;-68
2024/02/17 03:43:26;;;;;;;5.90;4.80;;;;;;;9.64;82.93;101208.56;104480;1259;73979;-67
2024/02/17 03:45:53;;;;;;;7.00;5.20;;;;;;;9.64;83.00;101210.99;104603;1259;138403;-68
2024/02/17 03:48:20;;;;;;;5.30;4.20;;;;;;;9.62;83.11;101217.59;104565;1259;62592;-67
2024/02/17 03:50:50;;;;;;;5.50;4.30;;;;;;;9.61;83.20;101218.10;104969;1257;75541;-68
2024/02/17 03:53:21;;;;;;;5.60;4.60;;;;;;;9.62;83.24;101213.56;106619;1257;138214;-61
2024/02/17 03:55:50;;;;;;;5.70;4.10;;;;;;;9.61;83.38;101208.45;104757;1259;73159;-60
2024/02/17 03:58:17;;;;;;;6.00;4.50;;;;;;;9.63;83.38;101220.61;104819;1259;138158;-67
2024/02/17 04:00:44;;;;;;;5.40;4.10;;;;;;;9.64;83.32;101216.96;104916;1260;61235;-67
2024/02/17 04:03:10;;;;;;;5.60;4.60;;;;;;;9.62;83.24;101211.30;105076;1258;138346;-66
2024/02/17 04:05:37;;;;;;;6.40;4.40;;;;;;;9.61;83.24;101213.88;105208;1259;66228;-67
2024/02/17 04:08:05;;;;;;;5.90;4.10;;;;;;;9.61;83.40;101223.70;105185;1257;73771;-60
2024/02/17 04:10:31;;;;;;;5.10;4.20;;;;;;;9.63;83.46;101222.03;104617;1257;139138;-60
2024/02/17 04:12:58;;;;;;;5.30;4.20;;;;;;;9.64;83.38;101235.70;104665;1254;61280;-60
2024/02/17 04:15:25;;;;;;;5.60;4.40;;;;;;;9.62;83.36;101231.25;104607;1259;139029;-60
2024/02/17 04:17:54;;;;;;;6.00;4.60;;;;;;;9.61;83.40;101220.73;104612;1262;66988;-60
2024/02/17 04:20:21;;;;;;;5.60;4.90;;;;;;;9.61;83.42;101230.35;105050;1257;72458;-60
2024/02/17 04:22:47;;;;;;;6.70;5.20;;;;;;;9.61;83.35;101222.82;105023;1257;138688;-62
2024/02/17 04:25:14;;;;;;;5.80;4.50;;;;;;;9.61;83.33;101220.68;104667;1257;61269;-60
2024/02/17 04:27:41;;;;;;;5.80;4.90;;;;;;;9.61;83.40;101235.42;104646;1257;139122;-58
2024/02/17 04:30:08;;;;;;;6.60;5.30;;;;;;;9.61;83.37;101228.11;104709;1259;66879;-61
2024/02/17 04:32:35;;;;;;;6.10;5.00;;;;;;;9.61;83.43;101227.02;104658;1257;71868;-61
2024/02/17 04:35:02;;;;;;;6.50;5.10;;;;;;;9.62;83.41;101223.22;105031;1257;138389;-59
2024/02/17 04:37:29;;;;;;;8.10;5.20;;;;;;;9.61;83.31;101224.23;104958;1260;61406;-59
2024/02/17 04:39:56;;;;;;;6.20;5.10;;;;;;;9.60;83.31;101232.25;104616;1261;138746;-60
2024/02/17 04:42:23;;;;;;;6.40;4.50;;;;;;;9.60;83.28;101234.88;104591;1259;67288;-67
2024/02/17 04:44:50;;;;;;;5.70;4.90;;;;;;;9.61;83.29;101234.89;104666;1257;71764;-67
2024/02/17 04:47:17;;;;;;;5.60;4.70;;;;;;;9.61;83.20;101236.67;104449;1256;138289;-68
2024/02/17 04:49:44;;;;;;;4.90;4.10;;;;;;;9.62;83.18;101247.73;105126;1260;61317;-68
2024/02/17 04:52:10;;;;;;;5.10;4.40;;;;;;;9.62;83.05;101252.80;104981;1260;138572;-68
2024/02/17 04:54:37;;;;;;;5.30;4.60;;;;;;;9.61;83.06;101253.13;104828;1254;64040;-67
2024/02/17 04:57:04;;;;;;;7.80;5.10;;;;;;;9.62;83.08;101251.75;104542;1255;71700;-68
2024/02/17 04:59:31;;;;;;;5.40;4.10;;;;;;;9.60;83.02;101257.48;106279;1257;61687;-60
2024/02/17 05:01:58;;;;;;;5.70;4.50;;;;;;;9.61;82.93;101262.06;104449;1256;61295;-68
2024/02/17 05:04:25;;;;;;;4.20;3.60;;;;;;;9.60;82.84;101272.35;104919;1259;138171;-68
2024/02/17 05:06:52;;;;;;;3.40;3.10;;;;;;;9.56;82.36;101278.18;105108;1259;66814;-67
2024/02/17 05:09:18;;;;;;;4.30;3.30;;;;;;;9.52;82.14;101281.01;104805;1259;138613;-70
2024/02/17 05:11:46;;;;;;;3.80;2.90;;;;;;;9.46;81.93;101278.33;104670;1260;61276;-71
2024/02/17 05:14:17;;;;;;;4.50;3.60;;;;;;;9.39;81.80;101282.97;108561;1255;61408;-68
2024/02/17 05:16:44;;;;;;;4.10;3.70;;;;;;;9.35;81.82;101284.23;108546;1257;138124;-69
2024/02/17 05:19:12;;;;;;;4.30;3.30;;;;;;;9.32;81.90;101286.23;107440;1260;66667;-69
2024/02/17 05:21:42;;;;;;;6.00;4.20;;;;;;;9.30;81.78;101289.98;105006;1259;138548;-68
2024/02/17 05:24:09;;;;;;;5.10;3.80;;;;;;;9.28;81.78;101296.02;106615;1256;61465;-68
2024/02/17 05:26:36;;;;;;;5.40;3.60;;;;;;;9.24;81.81;101296.22;104821;1254;61445;-69
2024/02/17 05:29:06;;;;;;;6.20;3.70;;;;;;;9.18;81.65;101305.10;104798;1256;138916;-59
2024/02/17 07:47:28;;;;;;;1.40;1.10;;;;;;;9.44;81.39;101475.88;106010;1255;84720;-88
2024/02/17 07:49:55;;;;;;;1.20;0.90;;;;;;;9.54;81.33;101474.70;106500;1257;77871;-86
2024/02/17 07:52:23;;;;;;;1.00;0.90;;;;;;;9.61;80.74;101473.23;106501;1256;144024;-87
2024/02/17 07:54:49;;;;;;;0.70;0.70;;;;;;;9.61;80.53;101480.20;106583;1259;72762;-87
2024/02/17 07:57:19;;;;;;;1.80;0.90;;;;;;;9.57;80.25;101479.17;107085;1254;61249;-93
2024/02/17 07:59:46;;;;;;;3.00;1.90;;;;;;;9.52;80.23;101484.96;107246;1259;138083;-93
2024/02/17 08:02:15;;;;;;;1.70;1.30;;;;;;;9.53;80.16;101487.08;107280;1256;74218;-94
2024/02/17 08:04:43;;;;;;;2.20;1.50;;;;;;;9.53;80.18;101488.16;107248;1257;138816;-95
2024/02/17 08:07:15;;;;;;;2.50;1.60;;;;;;;9.53;80.05;101488.32;107159;1261;73517;-92
2024/02/17 08:09:48;;;;;;;2.50;1.60;;;;;;;9.54;79.87;101486.61;105986;1256;77538;-69
2024/02/17 08:12:15;;;;;;;1.80;1.40;;;;;;;9.55;79.69;101489.63;104854;1260;138546;-64
2024/02/17 08:14:42;;;;;;;1.60;1.40;;;;;;;9.53;79.43;101495.69;104873;1256;73836;-64
2024/02/17 08:17:09;;;;;;;1.90;1.50;;;;;;;9.55;79.34;101504.36;104967;1257;137872;-63
2024/02/17 08:19:36;;;;;;;2.20;1.60;;;;;;;9.56;79.09;101501.21;105216;1259;71544;-64
2024/02/17 08:22:03;;;;;;;2.30;1.20;;;;;;;9.62;79.08;101507.75;105182;1257;61292;-67
2024/02/17 08:24:30;;;;;;;1.40;1.30;;;;;;;9.68;78.89;101507.49;104899;1257;137985;-63
2024/02/17 08:26:57;;;;;;;1.80;1.20;;;;;;;9.78;78.70;101513.31;105086;1259;75809;-63
2024/02/17 08:29:24;;;;;;;1.20;0.80;;;;;;;9.85;78.55;101513.98;108786;1256;139280;-63
2024/02/17 08:31:51;;;;;;;1.20;0.80;;;;;;;9.90;78.23;101521.00;108851;1255;73406;-63
2024/02/17 08:34:17;;;;;;;4.10;0.90;;;;;;;9.96;78.00;101529.29;108879;1257;60218;-63
2024/02/17 08:36:44;;;;;;;2.10;1.50;;;;;;;10.01;77.81;101528.98;108687;1255;150796;-64
2024/02/17 08:39:12;;;;;;;2.40;1.20;;;;;;;10.08;77.60;101529.77;108784;1256;75900;-63
2024/02/17 08:41:39;;;;;;;1.30;1.10;;;;;;;10.13;77.44;101533.31;108782;1255;137778;-70
2024/02/17 08:44:06;;;;;;;1.70;1.40;;;;;;;10.20;77.22;101534.44;108772;1255;71010;-72
2024/02/17 08:46:33;;;;;;;1.50;1.20;;;;;;;10.27;76.97;101542.27;107078;1256;138346;-79
2024/02/17 08:48:59;;;;;;;1.20;0.90;;;;;;;10.25;76.13;101545.01;105790;1259;61259;-69
2024/02/17 08:51:26;;;;;;;1.90;1.10;;;;;;;10.19;75.82;101547.56;104975;1257;74150;-67
2024/02/17 08:53:53;;;;;;;1.30;1.10;;;;;;;10.14;75.77;101555.61;104903;1256;137889;-71
2024/02/17 08:56:21;;;;;;;2.00;1.60;;;;;;;10.07;75.40;101562.35;105022;1257;73031;-71
2024/02/17 08:58:48;;;;;;;4.10;3.30;;;;;;;9.99;75.36;101559.06;105249;1259;137873;-70
2024/02/17 09:01:16;;;;;;;2.60;1.40;;;;;;;9.97;75.31;101557.91;105306;1254;61948;-70
2024/02/17 09:03:43;;;;;;;5.80;3.20;;;;;;;9.95;75.33;101564.31;105225;1256;75277;-70
2024/02/17 09:06:11;;;;;;;3.30;2.00;;;;;;;9.86;75.16;101573.44;105036;1259;137611;-71
2024/02/17 09:08:38;;;;;;;3.30;1.70;;;;;;;9.77;75.19;101578.68;105032;1257;71907;-70
2024/02/17 09:11:05;;;;;;;4.10;1.50;;;;;;;9.71;75.07;101579.14;105342;1259;138532;-71
2024/02/17 09:13:32;;;;;;;1.80;1.40;;;;;;;9.63;74.63;101586.66;105090;1257;61155;-71
2024/02/17 09:15:59;;;;;;;2.00;1.30;;;;;;;9.53;74.72;101593.27;104946;1256;74096;-70
2024/02/17 09:18:25;;;;;;;2.00;1.30;;;;;;;9.48;74.77;101593.43;105176;1259;137643;-70
2024/02/17 09:20:52;;;;;;;4.00;1.30;;;;;;;9.39;74.51;101597.59;105205;1259;74019;-71
2024/02/17 09:23:19;;;;;;;3.20;1.20;;;;;;;9.29;74.59;101596.98;105164;1257;137848;-71
2024/02/17 09:25:45;;;;;;;3.20;2.30;;;;;;;9.24;74.54;101599.02;105018;1254;234702;-70
2024/02/17 09:28:12;;;;;;;8.10;5.40;;;;;;;9.17;74.70;101605.71;105242;1256;74004;-70
2024/02/17 09:30:39;;;;;;;19.20;12.30;;;;;;;9.10;74.66;101606.66;105038;1259;137910;-70
2024/02/17 09:33:06;;;;;;;7.10;4.80;;;;;;;9.02;74.69;101606.79;105130;1256;73346;-71
2024/02/17 09:35:32;;;;;;;4.10;2.50;;;;;;;8.90;74.42;101608.38;105001;1257;137641;-71
2024/02/17 09:37:59;;;;;;;2.80;2.30;;;;;;;8.78;74.52;101610.45;105214;1259;61356;-70
2024/02/17 09:40:26;;;;;;;1.80;1.70;;;;;;;8.79;75.00;101613.79;105074;1257;137706;-68
2024/02/17 09:42:53;;;;;;;2.20;1.50;;;;;;;8.88;75.03;101611.26;105244;1259;66991;-70
2024/02/17 09:45:20;;;;;;;2.80;1.60;;;;;;;9.00;74.87;101612.48;105259;1257;73284;-70
2024/02/17 09:47:47;;;;;;;2.50;1.70;;;;;;;9.06;74.59;101605.77;104808;1261;138842;-70
2024/02/17 09:50:17;;;;;;;3.40;2.10;;;;;;;9.08;74.43;101618.11;104961;1262;61369;-70
2024/02/17 09:52:48;;;;;;;4.40;1.40;;;;;;;9.10;74.39;101624.36;105107;1256;137834;-70
2024/02/17 09:55:15;;;;;;;4.40;2.40;;;;;;;9.08;74.11;101628.09;105206;1259;66417;-70
2024/02/17 09:57:43;;;;;;;1.70;1.20;;;;;;;9.05;74.04;101628.98;105397;1259;73360;-71
2024/02/17 10:00:10;;;;;;;2.00;1.40;;;;;;;9.02;74.02;101634.64;105201;1258;137687;-71
2024/02/17 10:02:37;;;;;;;3.50;2.50;;;;;;;8.94;73.78;101638.46;105358;1259;61237;-72
2024/02/17 10:05:04;;;;;;;4.60;2.80;;;;;;;8.92;74.00;101639.45;105165;1254;138137;-72
2024/02/17 10:07:31;;;;;;;1.60;1.20;;;;;;;8.92;73.85;101639.09;104930;1262;67004;-72
2024/02/17 10:09:59;;;;;;;2.30;1.10;;;;;;;8.95;73.72;101641.14;105202;1258;71437;-71
2024/02/17 10:12:26;;;;;;;2.70;1.60;;;;;;;9.10;73.94;101641.50;105279;1255;137711;-71
2024/02/17 10:14:52;;;;;;;2.70;1.80;;;;;;;9.35;74.13;101636.98;104969;1259;61142;-71
2024/02/17 10:17:22;;;;;;;2.30;1.60;;;;;;;9.56;73.77;101642.11;104699;1257;137872;-71
2024/02/17 10:19:54;;;;;;;2.80;2.40;;;;;;;9.69;73.24;101645.63;104811;1260;64679;-71
2024/02/17 10:22:21;;;;;;;5.10;4.10;;;;;;;9.77;72.85;101650.36;108309;1255;137757;-64
2024/02/17 10:24:47;;;;;;;2.90;2.10;;;;;;;9.81;72.56;101658.58;108379;1255;60694;-63
2024/02/17 10:27:14;;;;;;;5.00;3.70;;;;;;;9.78;71.98;101658.80;108517;1255;60162;-71
2024/02/17 10:29:40;;;;;;;3.90;2.80;;;;;;;9.72;71.77;101661.90;108406;1256;137434;-72
2024/02/17 10:32:07;;;;;;;2.80;2.00;;;;;;;9.75;71.92;101667.27;108586;1254;65015;-71
2024/02/17 10:34:34;;;;;;;3.90;2.60;;;;;;;9.84;71.87;101672.05;105290;1259;139079;-70
2024/02/17 10:37:02;;;;;;;3.10;1.50;;;;;;;9.88;71.69;101668.17;105027;1257;61381;-71
2024/02/17 10:39:29;;;;;;;2.80;1.90;;;;;;;9.96;71.79;101675.00;105137;1255;61349;-71
2024/02/17 10:41:55;;;;;;;4.50;1.70;;;;;;;10.03;71.64;101676.55;104549;1260;137772;-64
2024/02/17 10:44:23;;;;;;;3.80;2.00;;;;;;;10.09;71.62;101681.70;104410;1260;66659;-62
2024/02/17 10:46:52;;;;;;;3.60;1.80;;;;;;;10.11;71.41;101679.33;108358;1255;138338;-63
2024/02/17 10:49:29;;;;;;;3.80;2.20;;;;;;;10.11;71.42;101673.35;108341;1257;60000;-64
2024/02/17 10:51:57;;;;;;;2.50;1.80;;;;;;;10.14;71.50;101677.86;108283;1257;59204;-64
2024/02/17 10:54:32;;;;;;;5.40;2.70;;;;;;;10.15;71.38;101684.92;106401;1255;137540;-71
2024/02/17 10:57:02;;;;;;;4.60;3.20;;;;;;;10.18;71.36;101689.42;107764;1256;64529;-71
2024/02/17 10:59:29;;;;;;;4.40;2.50;;;;;;;10.20;71.39;101692.34;105362;1257;138820;-71
2024/02/17 11:01:58;;;;;;;4.00;1.80;;;;;;;10.24;71.38;101695.29;104905;1257;61251;-72
2024/02/17 11:04:25;;;;;;;5.10;3.30;;;;;;;10.26;71.31;101694.84;105837;1257;137897;-70
2024/02/17 11:06:52;;;;;;;3.10;2.00;;;;;;;10.26;71.16;101699.77;108527;1256;75733;-64
2024/02/17 11:09:19;;;;;;;3.90;2.10;;;;;;;10.19;70.88;101702.83;108014;1254;64002;-70
2024/02/17 11:11:46;;;;;;;5.50;3.90;;;;;;;10.13;70.99;101709.02;104537;1257;138166;-68
2024/02/17 11:14:42;;;;;;;5.90;3.00;;;;;;;10.13;71.26;101705.88;104777;1259;61952;-64
2024/02/17 11:17:10;;;;;;;7.00;3.80;;;;;;;10.26;71.48;101709.41;108336;1256;138493;-62
2024/02/17 11:19:37;;;;;;;2.90;2.20;;;;;;;10.32;71.46;101710.58;108339;1254;77188;-62
2024/02/17 11:22:06;;;;;;;2.90;2.40;;;;;;;10.33;71.19;101709.38;108710;1256;68656;-62
2024/02/17 11:24:35;;;;;;;3.50;2.30;;;;;;;10.33;71.25;101715.02;108580;1254;137940;-62
2024/02/17 11:27:05;;;;;;;3.10;1.80;;;;;;;10.34;71.02;101726.77;108710;1259;59184;-62
2024/02/17 11:29:34;;;;;;;2.20;1.40;;;;;;;10.18;70.47;101725.90;108410;1256;137876;-69
2024/02/17 11:32:02;;;;;;;2.30;1.50;;;;;;;9.99;70.65;101729.70;108515;1257;76161;-70
2024/02/17 11:34:29;;;;;;;4.10;1.90;;;;;;;10.05;71.07;101734.66;108628;1256;137723;-68
2024/02/17 11:36:56;;;;;;;3.50;2.10;;;;;;;10.20;71.36;101734.94;108052;1259;71514;-69
2024/02/17 11:39:25;;;;;;;3.00;2.10;;;;;;;10.39;71.15;101733.33;105542;1257;61363;-70
2024/02/17 11:41:52;;;;;;;3.60;2.60;;;;;;;10.38;70.82;101739.92;105289;1259;137982;-70
2024/02/17 11:44:19;;;;;;;2.40;1.70;;;;;;;10.24;70.45;101744.77;105281;1259;73734;-70
2024/02/17 11:46:47;;;;;;;2.00;1.20;;;;;;;10.15;70.62;101751.77;105198;1259;138079;-69
2024/02/17 11:49:14;;;;;;;2.10;1.60;;;;;;;10.08;70.59;101758.28;105328;1256;72127;-69
2024/02/17 11:51:41;;;;;;;3.20;1.50;;;;;;;9.97;70.69;101759.40;105041;1262;61415;-68
2024/02/17 11:54:08;;;;;;;3.00;1.60;;;;;;;9.91;70.62;101764.21;104993;1261;137578;-69
2024/02/17 11:56:34;;;;;;;2.50;1.40;;;;;;;9.78;70.53;101771.20;105133;1256;72840;-69
2024/02/17 11:59:01;;;;;;;2.60;1.50;;;;;;;9.69;70.74;101776.06;104811;1259;138656;-66
2024/02/17 12:01:28;;;;;;;2.80;1.50;;;;;;;9.71;70.83;101782.97;105205;1259;73240;-67
2024/02/17 12:03:56;;;;;;;2.60;1.50;;;;;;;9.74;70.98;101774.00;105168;1260;61292;-68
2024/02/17 12:06:25;;;;;;;2.80;1.60;;;;;;;9.83;70.81;101785.27;104936;1257;137937;-67
2024/02/17 12:08:53;;;;;;;2.20;1.80;;;;;;;9.86;70.72;101784.00;105261;1257;73871;-67
2024/02/17 12:11:20;;;;;;;3.10;1.60;;;;;;;9.81;70.55;101791.14;104848;1259;137524;-67
2024/02/17 12:13:47;;;;;;;2.60;1.50;;;;;;;9.75;70.62;101794.69;104821;1257;71230;-67
2024/02/17 12:16:14;;;;;;;4.20;1.90;;;;;;;9.75;70.65;101792.95;104665;1256;61394;-67
2024/02/17 12:18:41;;;;;;;6.10;1.80;;;;;;;9.79;70.69;101794.88;107034;1257;137930;-67
2024/02/17 12:21:08;;;;;;;3.00;1.80;;;;;;;9.84;70.67;101802.30;108306;1256;74911;-67
2024/02/17 12:23:35;;;;;;;3.40;1.90;;;;;;;9.89;70.35;101800.79;106246;1257;138312;-69
2024/02/17 12:26:03;;;;;;;2.00;1.20;;;;;;;9.91;70.25;101803.33;104978;1255;73824;-69
2024/02/17 12:28:31;;;;;;;4.00;1.80;;;;;;;9.85;70.03;101805.16;108211;1254;138209;-66
2024/02/17 12:30:58;;;;;;;3.40;1.50;;;;;;;9.79;69.89;101807.14;106012;1259;62521;-68
2024/02/17 12:33:26;;;;;;;2.70;1.60;;;;;;;9.67;69.74;101815.20;104687;1259;76585;-61
2024/02/17 12:35:53;;;;;;;4.50;1.70;;;;;;;9.52;69.65;101817.33;108030;1255;137918;-61
2024/02/17 12:38:23;;;;;;;5.30;2.10;;;;;;;9.42;69.92;101816.89;108156;1254;73217;-61
2024/02/17 12:40:50;;;;;;;3.70;1.90;;;;;;;9.47;70.26;101825.14;108103;1256;137984;-61
2024/02/17 12:43:21;;;;;;;3.10;1.90;;;;;;;9.50;70.30;101829.14;108092;1256;58994;-62
2024/02/17 12:45:48;;;;;;;4.70;1.90;;;;;;;9.46;70.24;101834.73;107957;1256;75800;-61
2024/02/17 12:48:18;;;;;;;3.20;1.90;;;;;;;9.46;70.52;101838.60;107967;1254;137598;-62
2024/02/17 12:50:45;;;;;;;6.70;3.90;;;;;;;9.52;70.77;101840.11;108230;1255;72338;-61
2024/02/17 12:53:21;;;;;;;3.40;1.90;;;;;;;9.68;70.95;101842.80;107837;1257;138047;-61
2024/02/17 12:55:48;;;;;;;3.10;1.60;;;;;;;9.77;70.62;101846.02;108172;1257;61636;-62
2024/02/17 12:58:15;;;;;;;2.50;1.20;;;;;;;9.75;69.90;101852.89;108184;1256;73308;-62
2024/02/17 13:00:45;;;;;;;1.50;1.40;;;;;;;9.71;69.98;101851.53;107977;1256;138449;-63
2024/02/17 13:03:13;;;;;;;3.00;1.40;;;;;;;9.69;69.65;101856.83;108100;1257;72920;-62
2024/02/17 13:05:42;;;;;;;3.80;1.70;;;;;;;9.55;69.58;101867.23;107969;1257;137730;-62
2024/02/17 13:08:08;;;;;;;2.40;1.50;;;;;;;9.46;69.79;101869.08;104908;1257;61187;-62
2024/02/17 13:10:35;;;;;;;2.50;1.30;;;;;;;9.36;69.76;101874.56;104578;1255;138085;-62
2024/02/17 13:13:03;;;;;;;2.60;1.60;;;;;;;9.24;69.93;101882.02;108097;1256;66824;-62
2024/02/17 13:15:30;;;;;;;4.50;1.50;;;;;;;9.16;70.22;101885.70;108144;1258;74051;-63
2024/02/17 13:17:57;;;;;;;2.50;1.30;;;;;;;9.18;70.56;101892.43;108075;1256;137930;-63
2024/02/17 13:20:24;;;;;;;3.50;1.50;;;;;;;9.22;70.67;101897.00;108167;1254;59170;-62
2024/02/17 13:22:51;;;;;;;2.90;1.30;;;;;;;9.17;70.65;101909.39;108072;1259;137910;-62
2024/02/17 13:25:17;;;;;;;3.90;1.30;;;;;;;9.00;70.66;101914.31;108054;1256;65038;-61
2024/02/17 13:27:45;;;;;;;2.40;1.50;;;;;;;8.88;70.93;101920.17;108200;1256;70624;-62
2024/02/17 13:30:18;;;;;;;2.40;1.60;;;;;;;8.80;71.09;101924.13;107938;1257;139016;-64
2024/02/17 13:32:45;;;;;;;4.40;1.90;;;;;;;8.78;71.34;101931.05;108208;1257;61360;-65